sensor_id;sensor_type;location;lat;lon;timestamp;P1;durP1;ratioP1;P2;durP2;ratioP2
49147;SDS011;41980;45.550;12.070;2022-08-24T00:02:37;3.58;;;1.15;;
49147;SDS011;41980;45.550;12.070;2022-08-24T00:08:39;2.63;;;1.40;;
49147;SDS011;41980;45.550;12.070;2022-08-24T00:14:42;3.78;;;1.70;;
49147;SDS011;41980;45.550;12.070;2022-08-24T00:20:45;3.13;;;1.80;;
49147;SDS011;41980;45.550;12.070;2022-08-24T00:26:48;2.67;;;1.10;;
49147;SDS011;41980;45.550;12.070;2022-08-24T00:32:50;2.47;;;1.48;;
49147;SDS011;41980;45.550;12.070;2022-08-24T00:38:54;2.50;;;1.23;;
49147;SDS011;41980;45.550;12.070;2022-08-24T00:44:56;2.33;;;1.30;;
49147;SDS011;41980;45.550;12.070;2022-08-24T00:51:00;1.70;;;1.00;;
49147;SDS011;41980;45.550;12.070;2022-08-24T00:57:07;2.13;;;1.10;;
49147;SDS011;41980;45.550;12.070;2022-08-24T01:03:12;1.70;;;1.00;;
49147;SDS011;41980;45.550;12.070;2022-08-24T01:09:15;2.42;;;1.20;;
49147;SDS011;41980;45.550;12.070;2022-08-24T01:15:17;2.47;;;1.48;;
49147;SDS011;41980;45.550;12.070;2022-08-24T01:27:27;2.33;;;1.40;;
49147;SDS011;41980;45.550;12.070;2022-08-24T01:33:30;4.18;;;1.20;;
49147;SDS011;41980;45.550;12.070;2022-08-24T01:39:35;1.80;;;1.00;;
49147;SDS011;41980;45.550;12.070;2022-08-24T01:45:41;1.70;;;1.15;;
49147;SDS011;41980;45.550;12.070;2022-08-24T01:51:44;2.00;;;1.23;;
49147;SDS011;41980;45.550;12.070;2022-08-24T01:57:47;2.35;;;1.42;;
49147;SDS011;41980;45.550;12.070;2022-08-24T02:03:49;2.25;;;1.40;;
49147;SDS011;41980;45.550;12.070;2022-08-24T02:09:52;2.00;;;1.30;;
49147;SDS011;41980;45.550;12.070;2022-08-24T02:15:54;2.38;;;1.35;;
49147;SDS011;41980;45.550;12.070;2022-08-24T02:21:57;2.40;;;1.40;;
49147;SDS011;41980;45.550;12.070;2022-08-24T02:28:01;2.15;;;1.20;;
49147;SDS011;41980;45.550;12.070;2022-08-24T02:34:03;2.20;;;1.20;;
49147;SDS011;41980;45.550;12.070;2022-08-24T02:40:06;2.22;;;1.20;;
49147;SDS011;41980;45.550;12.070;2022-08-24T02:52:18;2.05;;;1.13;;
49147;SDS011;41980;45.550;12.070;2022-08-24T02:58:22;2.00;;;1.30;;
49147;SDS011;41980;45.550;12.070;2022-08-24T03:04:25;2.13;;;1.20;;
49147;SDS011;41980;45.550;12.070;2022-08-24T03:10:28;2.35;;;1.17;;
49147;SDS011;41980;45.550;12.070;2022-08-24T03:16:30;2.65;;;1.30;;
49147;SDS011;41980;45.550;12.070;2022-08-24T03:22:32;1.30;;;0.70;;
49147;SDS011;41980;45.550;12.070;2022-08-24T03:28:34;2.05;;;0.90;;
49147;SDS011;41980;45.550;12.070;2022-08-24T03:34:36;1.70;;;0.80;;
49147;SDS011;41980;45.550;12.070;2022-08-24T03:40:40;1.90;;;1.10;;
49147;SDS011;41980;45.550;12.070;2022-08-24T03:46:43;1.90;;;1.20;;
49147;SDS011;41980;45.550;12.070;2022-08-24T03:52:47;2.35;;;1.30;;
49147;SDS011;41980;45.550;12.070;2022-08-24T03:58:49;3.17;;;1.73;;
49147;SDS011;41980;45.550;12.070;2022-08-24T04:04:52;3.72;;;1.98;;
49147;SDS011;41980;45.550;12.070;2022-08-24T04:10:55;2.20;;;1.50;;
49147;SDS011;41980;45.550;12.070;2022-08-24T04:16:57;2.60;;;1.40;;
49147;SDS011;41980;45.550;12.070;2022-08-24T04:23:06;3.20;;;2.00;;
49147;SDS011;41980;45.550;12.070;2022-08-24T04:29:10;4.18;;;1.75;;
49147;SDS011;41980;45.550;12.070;2022-08-24T04:35:19;2.97;;;1.77;;
49147;SDS011;41980;45.550;12.070;2022-08-24T04:41:21;3.03;;;1.88;;
49147;SDS011;41980;45.550;12.070;2022-08-24T04:47:23;2.25;;;1.40;;
49147;SDS011;41980;45.550;12.070;2022-08-24T04:53:25;3.45;;;1.63;;
49147;SDS011;41980;45.550;12.070;2022-08-24T04:59:27;2.60;;;1.73;;
49147;SDS011;41980;45.550;12.070;2022-08-24T05:05:30;2.33;;;1.50;;
49147;SDS011;41980;45.550;12.070;2022-08-24T05:11:33;3.28;;;1.90;;
49147;SDS011;41980;45.550;12.070;2022-08-24T05:17:39;2.85;;;2.03;;
49147;SDS011;41980;45.550;12.070;2022-08-24T05:23:41;2.67;;;1.60;;
49147;SDS011;41980;45.550;12.070;2022-08-24T05:29:46;1.95;;;1.10;;
49147;SDS011;41980;45.550;12.070;2022-08-24T05:35:52;2.40;;;1.15;;
49147;SDS011;41980;45.550;12.070;2022-08-24T05:41:54;2.25;;;1.20;;
49147;SDS011;41980;45.550;12.070;2022-08-24T05:48:00;3.00;;;0.90;;
49147;SDS011;41980;45.550;12.070;2022-08-24T05:54:07;1.55;;;0.70;;
49147;SDS011;41980;45.550;12.070;2022-08-24T06:00:24;2.65;;;0.70;;
49147;SDS011;41980;45.550;12.070;2022-08-24T06:06:27;2.13;;;0.75;;
49147;SDS011;41980;45.550;12.070;2022-08-24T06:12:29;1.63;;;0.80;;
49147;SDS011;41980;45.550;12.070;2022-08-24T06:18:31;1.92;;;0.77;;
49147;SDS011;41980;45.550;12.070;2022-08-24T06:24:38;1.42;;;0.63;;
49147;SDS011;41980;45.550;12.070;2022-08-24T06:30:43;2.25;;;0.77;;
49147;SDS011;41980;45.550;12.070;2022-08-24T06:36:51;1.63;;;0.80;;
49147;SDS011;41980;45.550;12.070;2022-08-24T06:42:55;1.50;;;0.68;;
49147;SDS011;41980;45.550;12.070;2022-08-24T06:49:11;1.55;;;0.70;;
49147;SDS011;41980;45.550;12.070;2022-08-24T06:55:14;1.63;;;0.73;;
49147;SDS011;41980;45.550;12.070;2022-08-24T07:01:17;1.70;;;0.80;;
49147;SDS011;41980;45.550;12.070;2022-08-24T07:07:23;3.13;;;1.00;;
49147;SDS011;41980;45.550;12.070;2022-08-24T07:13:25;1.45;;;0.73;;
49147;SDS011;41980;45.550;12.070;2022-08-24T07:19:27;1.40;;;0.52;;
49147;SDS011;41980;45.550;12.070;2022-08-24T07:25:30;5.22;;;0.90;;
49147;SDS011;41980;45.550;12.070;2022-08-24T07:31:33;2.10;;;0.80;;
49147;SDS011;41980;45.550;12.070;2022-08-24T07:37:39;1.35;;;0.68;;
49147;SDS011;41980;45.550;12.070;2022-08-24T07:43:45;1.77;;;0.50;;
49147;SDS011;41980;45.550;12.070;2022-08-24T07:49:49;2.33;;;0.77;;
49147;SDS011;41980;45.550;12.070;2022-08-24T07:55:52;2.33;;;1.00;;
49147;SDS011;41980;45.550;12.070;2022-08-24T08:01:58;2.10;;;0.80;;
49147;SDS011;41980;45.550;12.070;2022-08-24T08:08:00;2.30;;;0.77;;
49147;SDS011;41980;45.550;12.070;2022-08-24T08:14:03;2.35;;;0.85;;
49147;SDS011;41980;45.550;12.070;2022-08-24T08:20:06;1.67;;;0.70;;
49147;SDS011;41980;45.550;12.070;2022-08-24T08:26:12;1.65;;;0.70;;
49147;SDS011;41980;45.550;12.070;2022-08-24T08:32:29;1.63;;;0.68;;
49147;SDS011;41980;45.550;12.070;2022-08-24T08:38:33;1.60;;;0.75;;
49147;SDS011;41980;45.550;12.070;2022-08-24T09:27:49;1.58;;;0.60;;
49147;SDS011;41980;45.550;12.070;2022-08-24T09:52:35;1.30;;;0.60;;
49147;SDS011;41980;45.550;12.070;2022-08-24T09:58:51;2.35;;;0.90;;
49147;SDS011;41980;45.550;12.070;2022-08-24T10:11:10;1.30;;;0.65;;
49147;SDS011;41980;45.550;12.070;2022-08-24T10:54:04;2.15;;;1.05;;
49147;SDS011;41980;45.550;12.070;2022-08-24T11:00:08;1.95;;;0.80;;
49147;SDS011;41980;45.550;12.070;2022-08-24T11:06:16;2.40;;;0.80;;
49147;SDS011;41980;45.550;12.070;2022-08-24T11:24:45;2.70;;;0.80;;
49147;SDS011;41980;45.550;12.070;2022-08-24T11:30:48;1.20;;;0.57;;
49147;SDS011;41980;45.550;12.070;2022-08-24T11:36:51;2.35;;;0.80;;
49147;SDS011;41980;45.550;12.070;2022-08-24T11:55:14;1.50;;;0.60;;
49147;SDS011;41980;45.550;12.070;2022-08-24T12:19:51;1.20;;;0.60;;
49147;SDS011;41980;45.550;12.070;2022-08-24T12:25:59;1.75;;;0.70;;
49147;SDS011;41980;45.550;12.070;2022-08-24T12:32:08;1.50;;;0.80;;
49147;SDS011;41980;45.550;12.070;2022-08-24T12:38:18;3.00;;;0.68;;
49147;SDS011;41980;45.550;12.070;2022-08-24T12:44:30;1.95;;;0.93;;
49147;SDS011;41980;45.550;12.070;2022-08-24T13:03:04;1.55;;;0.47;;
49147;SDS011;41980;45.550;12.070;2022-08-24T13:21:39;1.20;;;0.60;;
49147;SDS011;41980;45.550;12.070;2022-08-24T13:27:47;1.65;;;0.65;;
49147;SDS011;41980;45.550;12.070;2022-08-24T14:17:10;1.60;;;0.63;;
49147;SDS011;41980;45.550;12.070;2022-08-24T14:29:27;1.92;;;0.70;;
49147;SDS011;41980;45.550;12.070;2022-08-24T14:41:42;1.27;;;0.60;;
49147;SDS011;41980;45.550;12.070;2022-08-24T15:00:10;1.33;;;0.65;;
49147;SDS011;41980;45.550;12.070;2022-08-24T15:36:57;1.90;;;0.70;;
49147;SDS011;41980;45.550;12.070;2022-08-24T15:43:02;1.70;;;0.80;;
49147;SDS011;41980;45.550;12.070;2022-08-24T15:49:07;1.13;;;0.43;;
49147;SDS011;41980;45.550;12.070;2022-08-24T16:01:26;1.42;;;0.55;;
49147;SDS011;41980;45.550;12.070;2022-08-24T16:07:33;0.98;;;0.45;;
49147;SDS011;41980;45.550;12.070;2022-08-24T16:13:55;1.85;;;0.65;;
49147;SDS011;41980;45.550;12.070;2022-08-24T16:19:58;1.58;;;0.40;;
49147;SDS011;41980;45.550;12.070;2022-08-24T16:32:14;1.20;;;0.50;;
49147;SDS011;41980;45.550;12.070;2022-08-24T16:38:19;2.75;;;0.93;;
49147;SDS011;41980;45.550;12.070;2022-08-24T16:44:22;1.50;;;0.60;;
49147;SDS011;41980;45.550;12.070;2022-08-24T16:50:24;1.63;;;0.70;;
49147;SDS011;41980;45.550;12.070;2022-08-24T16:56:26;1.20;;;0.60;;
49147;SDS011;41980;45.550;12.070;2022-08-24T17:02:29;1.90;;;0.90;;
49147;SDS011;41980;45.550;12.070;2022-08-24T17:08:31;1.30;;;0.60;;
49147;SDS011;41980;45.550;12.070;2022-08-24T17:14:34;1.08;;;0.57;;
49147;SDS011;41980;45.550;12.070;2022-08-24T17:20:39;1.33;;;0.50;;
49147;SDS011;41980;45.550;12.070;2022-08-24T17:26:42;1.10;;;0.50;;
49147;SDS011;41980;45.550;12.070;2022-08-24T17:32:44;1.27;;;0.52;;
49147;SDS011;41980;45.550;12.070;2022-08-24T17:38:46;1.40;;;0.60;;
49147;SDS011;41980;45.550;12.070;2022-08-24T17:44:51;1.10;;;0.38;;
49147;SDS011;41980;45.550;12.070;2022-08-24T17:50:53;1.70;;;0.90;;
49147;SDS011;41980;45.550;12.070;2022-08-24T17:56:55;1.38;;;0.60;;
49147;SDS011;41980;45.550;12.070;2022-08-24T18:02:58;2.00;;;0.60;;
49147;SDS011;41980;45.550;12.070;2022-08-24T18:09:02;0.77;;;0.40;;
49147;SDS011;41980;45.550;12.070;2022-08-24T18:15:07;1.30;;;0.70;;
49147;SDS011;41980;45.550;12.070;2022-08-24T18:21:10;1.55;;;0.50;;
49147;SDS011;41980;45.550;12.070;2022-08-24T18:27:13;1.35;;;0.60;;
49147;SDS011;41980;45.550;12.070;2022-08-24T18:33:19;1.10;;;0.60;;
49147;SDS011;41980;45.550;12.070;2022-08-24T18:39:21;1.75;;;0.73;;
49147;SDS011;41980;45.550;12.070;2022-08-24T18:45:23;2.13;;;0.88;;
49147;SDS011;41980;45.550;12.070;2022-08-24T18:51:31;1.42;;;0.63;;
49147;SDS011;41980;45.550;12.070;2022-08-24T18:57:37;1.73;;;0.60;;
49147;SDS011;41980;45.550;12.070;2022-08-24T19:03:39;1.38;;;0.50;;
49147;SDS011;41980;45.550;12.070;2022-08-24T19:09:42;1.30;;;0.60;;
49147;SDS011;41980;45.550;12.070;2022-08-24T19:15:45;1.42;;;0.60;;
49147;SDS011;41980;45.550;12.070;2022-08-24T19:21:48;1.30;;;0.50;;
49147;SDS011;41980;45.550;12.070;2022-08-24T19:27:50;1.40;;;0.75;;
49147;SDS011;41980;45.550;12.070;2022-08-24T19:33:55;1.17;;;0.60;;
49147;SDS011;41980;45.550;12.070;2022-08-24T19:40:03;1.40;;;0.60;;
49147;SDS011;41980;45.550;12.070;2022-08-24T19:46:06;1.30;;;0.60;;
49147;SDS011;41980;45.550;12.070;2022-08-24T19:52:10;1.58;;;0.65;;
49147;SDS011;41980;45.550;12.070;2022-08-24T20:04:22;2.72;;;1.30;;
49147;SDS011;41980;45.550;12.070;2022-08-24T20:10:25;2.40;;;1.30;;
49147;SDS011;41980;45.550;12.070;2022-08-24T20:16:31;3.00;;;1.75;;
49147;SDS011;41980;45.550;12.070;2022-08-24T20:22:36;4.20;;;2.00;;
49147;SDS011;41980;45.550;12.070;2022-08-24T20:28:40;4.07;;;2.08;;
49147;SDS011;41980;45.550;12.070;2022-08-24T20:34:46;3.97;;;1.83;;
49147;SDS011;41980;45.550;12.070;2022-08-24T20:40:49;3.25;;;2.00;;
49147;SDS011;41980;45.550;12.070;2022-08-24T20:46:54;3.10;;;1.70;;
49147;SDS011;41980;45.550;12.070;2022-08-24T20:52:56;3.00;;;1.83;;
49147;SDS011;41980;45.550;12.070;2022-08-24T20:59:00;2.72;;;1.75;;
49147;SDS011;41980;45.550;12.070;2022-08-24T21:05:04;3.22;;;1.67;;
49147;SDS011;41980;45.550;12.070;2022-08-24T21:11:06;2.92;;;1.38;;
49147;SDS011;41980;45.550;12.070;2022-08-24T21:17:11;3.03;;;1.30;;
49147;SDS011;41980;45.550;12.070;2022-08-24T21:23:13;2.65;;;1.45;;
49147;SDS011;41980;45.550;12.070;2022-08-24T21:29:14;2.00;;;1.13;;
49147;SDS011;41980;45.550;12.070;2022-08-24T21:35:17;2.30;;;1.13;;
49147;SDS011;41980;45.550;12.070;2022-08-24T21:41:19;3.30;;;1.20;;
49147;SDS011;41980;45.550;12.070;2022-08-24T21:47:24;2.30;;;1.25;;
49147;SDS011;41980;45.550;12.070;2022-08-24T21:53:27;2.03;;;1.10;;
49147;SDS011;41980;45.550;12.070;2022-08-24T21:59:30;1.58;;;0.90;;
49147;SDS011;41980;45.550;12.070;2022-08-24T22:05:53;2.40;;;1.15;;
49147;SDS011;41980;45.550;12.070;2022-08-24T22:11:55;2.88;;;1.13;;
49147;SDS011;41980;45.550;12.070;2022-08-24T22:17:59;1.95;;;0.88;;
49147;SDS011;41980;45.550;12.070;2022-08-24T22:24:02;2.38;;;1.40;;
49147;SDS011;41980;45.550;12.070;2022-08-24T22:30:05;2.60;;;1.00;;
49147;SDS011;41980;45.550;12.070;2022-08-24T22:36:09;2.20;;;1.15;;
49147;SDS011;41980;45.550;12.070;2022-08-24T22:42:12;2.78;;;1.58;;
49147;SDS011;41980;45.550;12.070;2022-08-24T22:48:14;3.15;;;1.63;;
49147;SDS011;41980;45.550;12.070;2022-08-24T22:54:17;3.03;;;1.65;;
49147;SDS011;41980;45.550;12.070;2022-08-24T23:00:20;3.58;;;1.33;;
49147;SDS011;41980;45.550;12.070;2022-08-24T23:06:23;4.05;;;1.45;;
49147;SDS011;41980;45.550;12.070;2022-08-24T23:12:25;3.17;;;1.20;;
49147;SDS011;41980;45.550;12.070;2022-08-24T23:18:28;2.25;;;1.20;;
49147;SDS011;41980;45.550;12.070;2022-08-24T23:24:34;2.83;;;1.55;;
49147;SDS011;41980;45.550;12.070;2022-08-24T23:30:37;2.90;;;1.50;;
49147;SDS011;41980;45.550;12.070;2022-08-24T23:36:39;2.50;;;1.27;;
49147;SDS011;41980;45.550;12.070;2022-08-24T23:42:42;3.05;;;1.50;;
49147;SDS011;41980;45.550;12.070;2022-08-24T23:48:45;2.00;;;1.30;;
49147;SDS011;41980;45.550;12.070;2022-08-24T23:54:49;2.60;;;1.40;;
